createdAt,value
2019-05-15T00:01:08.779Z,1.63
2019-05-15T00:03:39.203Z,1.23
2019-05-15T00:06:08.772Z,1.30
2019-05-15T00:08:38.851Z,1.33
2019-05-15T00:11:08.424Z,1.20
2019-05-15T00:13:38.885Z,1.40
2019-05-15T00:16:08.617Z,1.40
2019-05-15T00:18:39.034Z,1.13
2019-05-15T00:21:09.258Z,1.30
2019-05-15T00:23:38.964Z,1.43
2019-05-15T00:26:09.294Z,1.40
2019-05-15T00:28:39.128Z,1.10
2019-05-15T00:31:08.964Z,1.60
2019-05-15T00:33:39.350Z,1.10
2019-05-15T00:36:08.883Z,1.37
2019-05-15T00:38:39.068Z,1.23
2019-05-15T00:41:09.480Z,1.23
2019-05-15T00:43:38.934Z,1.30
2019-05-15T00:46:18.351Z,1.17
2019-05-15T00:48:48.713Z,1.60
2019-05-15T00:51:19.532Z,1.00
2019-05-15T00:53:48.894Z,1.37
2019-05-15T00:56:19.456Z,1.30
2019-05-15T00:58:48.774Z,1.60
2019-05-15T01:01:19.342Z,1.57
2019-05-15T01:03:49.342Z,1.30
2019-05-15T01:06:19.128Z,1.30
2019-05-15T01:08:48.518Z,1.40
2019-05-15T01:11:19.165Z,1.20
2019-05-15T01:13:48.557Z,1.40
2019-05-15T01:16:18.651Z,1.20
2019-05-15T01:18:49.116Z,1.30
2019-05-15T01:21:18.883Z,1.30
2019-05-15T01:23:48.483Z,1.70
2019-05-15T01:26:18.845Z,1.60
2019-05-15T01:28:49.443Z,1.70
2019-05-15T01:31:19.135Z,1.57
2019-05-15T01:33:48.409Z,1.67
2019-05-15T01:36:19.316Z,1.63
2019-05-15T01:38:48.311Z,1.60
2019-05-15T01:41:18.862Z,1.70
2019-05-15T01:43:48.965Z,1.80
2019-05-15T01:46:19.112Z,1.60
2019-05-15T01:48:49.346Z,1.90
2019-05-15T01:51:18.643Z,1.50
2019-05-15T01:53:48.143Z,1.60
2019-05-15T01:56:18.747Z,1.87
2019-05-15T01:58:48.746Z,2.00
2019-05-15T02:01:19.242Z,1.60
2019-05-15T02:03:49.269Z,1.60
2019-05-15T02:06:19.147Z,1.53
2019-05-15T02:08:49.676Z,1.83
2019-05-15T02:11:19.037Z,1.60
2019-05-15T02:13:48.129Z,1.90
2019-05-15T02:16:19.195Z,1.80
2019-05-15T02:18:48.889Z,1.60
2019-05-15T02:21:18.434Z,1.67
2019-05-15T02:23:48.199Z,1.70
2019-05-15T02:26:18.930Z,1.47
2019-05-15T02:28:48.827Z,1.77
2019-05-15T02:31:19.625Z,1.80
2019-05-15T02:33:49.794Z,1.93
2019-05-15T02:36:20.577Z,1.70
2019-05-15T02:38:50.009Z,1.70
2019-05-15T02:41:19.660Z,1.60
2019-05-15T02:43:50.119Z,1.90
2019-05-15T02:46:19.792Z,2.00
2019-05-15T02:48:49.157Z,2.00
2019-05-15T02:51:19.352Z,1.77
2019-05-15T02:53:50.008Z,1.73
2019-05-15T02:56:20.504Z,1.80
2019-05-15T02:58:49.822Z,1.97
2019-05-15T03:01:19.187Z,1.73
2019-05-15T03:03:49.651Z,1.73
2019-05-15T03:06:19.508Z,1.67
2019-05-15T03:08:49.687Z,1.80
2019-05-15T03:11:19.222Z,1.80
2019-05-15T03:13:50.362Z,1.50
2019-05-15T03:16:19.654Z,1.87
2019-05-15T03:18:50.540Z,1.70
2019-05-15T03:21:19.702Z,2.07
2019-05-15T03:23:50.700Z,1.80
2019-05-15T03:26:20.069Z,2.20
2019-05-15T03:28:49.722Z,3.23
2019-05-15T03:31:40.714Z,4.43
2019-05-15T03:33:54.084Z,3.70
2019-05-15T03:36:23.331Z,4.10
2019-05-15T03:38:51.462Z,4.33
2019-05-15T03:41:20.608Z,3.13
2019-05-15T03:43:49.897Z,3.10
2019-05-15T03:46:19.989Z,3.10
2019-05-15T03:48:49.549Z,2.53
2019-05-15T03:51:19.805Z,2.77
2019-05-15T03:53:49.936Z,3.10
2019-05-15T03:56:19.501Z,2.70
2019-05-15T03:58:49.426Z,2.70
2019-05-15T04:01:30.052Z,2.67
2019-05-15T04:03:49.827Z,2.60
2019-05-15T04:06:19.550Z,2.40
2019-05-15T04:08:49.737Z,2.40
2019-05-15T04:11:20.237Z,2.53
2019-05-15T04:13:50.177Z,2.40
2019-05-15T04:16:19.501Z,2.33
2019-05-15T04:18:49.258Z,2.33
2019-05-15T04:21:19.986Z,2.70
2019-05-15T04:23:50.224Z,2.67
2019-05-15T04:26:22.306Z,4.03
2019-05-15T04:28:52.377Z,3.67
2019-05-15T04:31:21.478Z,3.53
2019-05-15T04:33:50.536Z,3.27
2019-05-15T04:36:22.223Z,3.10
2019-05-15T04:38:52.565Z,2.80
2019-05-15T04:41:21.667Z,2.63
2019-05-15T04:43:50.767Z,2.57
2019-05-15T04:46:20.169Z,2.30
2019-05-15T04:48:50.100Z,2.27
2019-05-15T04:51:19.726Z,2.20
2019-05-15T04:53:50.238Z,2.07
2019-05-15T04:56:19.821Z,2.60
2019-05-15T04:58:50.638Z,1.93
2019-05-15T05:01:20.339Z,2.37
2019-05-15T05:03:49.878Z,2.00
2019-05-15T05:06:19.820Z,1.63
2019-05-15T05:08:49.428Z,1.80
2019-05-15T05:11:19.810Z,1.90
2019-05-15T05:13:49.374Z,1.70
2019-05-15T05:16:19.276Z,1.80
2019-05-15T05:18:48.963Z,2.00
2019-05-15T05:21:18.485Z,1.93
2019-05-15T05:23:48.435Z,1.67
2019-05-15T05:26:18.529Z,2.10
2019-05-15T05:28:48.784Z,1.37
2019-05-15T05:31:19.068Z,1.80
2019-05-15T05:33:48.729Z,1.63
2019-05-15T05:36:18.536Z,1.97
2019-05-15T05:38:49.425Z,1.80
2019-05-15T05:41:19.040Z,1.70
2019-05-15T05:43:48.841Z,1.63
2019-05-15T05:46:18.567Z,1.60
2019-05-15T05:48:48.973Z,1.90
2019-05-15T05:51:19.051Z,1.80
2019-05-15T05:53:48.492Z,2.00
2019-05-15T05:56:18.164Z,1.73
2019-05-15T05:58:49.130Z,1.50
2019-05-15T06:01:18.806Z,1.70
2019-05-15T06:03:49.054Z,1.60
2019-05-15T06:06:18.766Z,1.50
2019-05-15T06:08:48.216Z,1.80
2019-05-15T06:11:18.364Z,1.70
2019-05-15T06:13:51.905Z,1.97
2019-05-15T06:16:19.004Z,1.90
2019-05-15T06:18:49.237Z,1.90
2019-05-15T06:21:18.594Z,2.10
2019-05-15T06:23:54.749Z,2.00
2019-05-15T06:26:19.682Z,1.97
2019-05-15T06:28:49.278Z,1.50
2019-05-15T06:31:18.955Z,1.67
2019-05-15T06:33:49.084Z,1.53
2019-05-15T06:36:18.501Z,1.47
2019-05-15T06:38:48.350Z,1.80
2019-05-15T06:41:18.315Z,2.03
2019-05-15T06:43:48.331Z,1.50
2019-05-15T06:46:18.793Z,1.63
2019-05-15T06:48:48.622Z,1.60
2019-05-15T06:51:18.281Z,1.40
2019-05-15T06:53:49.150Z,1.60
2019-05-15T06:56:18.916Z,1.50
2019-05-15T06:58:48.744Z,1.30
2019-05-15T07:01:18.862Z,1.47
2019-05-15T07:03:48.552Z,1.37
2019-05-15T07:06:18.244Z,1.67
2019-05-15T07:08:49.567Z,1.40
2019-05-15T07:11:19.141Z,1.77
2019-05-15T07:13:48.711Z,1.30
2019-05-15T07:16:18.264Z,1.37
2019-05-15T07:18:48.611Z,1.47
2019-05-15T07:21:20.512Z,1.40
2019-05-15T07:23:49.661Z,1.50
2019-05-15T07:26:18.999Z,1.43
2019-05-15T07:28:48.565Z,1.40
2019-05-15T07:31:18.139Z,1.33
2019-05-15T07:33:49.085Z,1.70
2019-05-15T07:36:19.201Z,1.30
2019-05-15T07:38:48.711Z,1.00
2019-05-15T07:41:18.442Z,1.33
2019-05-15T07:43:49.392Z,1.27
2019-05-15T07:46:18.770Z,1.37
2019-05-15T07:48:49.075Z,1.10
2019-05-15T07:51:18.535Z,1.33
2019-05-15T07:53:49.119Z,1.10
2019-05-15T07:56:18.325Z,1.33
2019-05-15T07:58:52.510Z,1.20
2019-05-15T08:01:18.653Z,1.30
2019-05-15T08:03:58.957Z,1.23
2019-05-15T08:06:18.706Z,1.30
2019-05-15T08:08:48.602Z,1.07
2019-05-15T08:11:23.926Z,1.10
2019-05-15T08:13:48.826Z,1.33
2019-05-15T08:16:18.191Z,1.37
2019-05-15T08:18:48.432Z,1.37
2019-05-15T08:21:18.515Z,1.30
2019-05-15T08:23:48.415Z,1.20
2019-05-15T08:26:17.967Z,1.50
2019-05-15T08:28:48.671Z,1.00
2019-05-15T08:31:18.451Z,1.20
2019-05-15T08:33:48.164Z,1.50
2019-05-15T08:36:18.375Z,1.40
2019-05-15T08:38:48.620Z,1.40
2019-05-15T08:41:18.489Z,1.20
2019-05-15T08:43:48.731Z,1.20
2019-05-15T08:46:18.790Z,1.02
2019-05-15T08:48:49.111Z,1.12
2019-05-15T08:51:19.281Z,1.17
2019-05-15T08:53:48.934Z,1.17
2019-05-15T08:56:19.372Z,1.22
2019-05-15T08:58:49.631Z,1.23
2019-05-15T09:01:18.717Z,1.20
2019-05-15T09:03:48.900Z,1.20
2019-05-15T09:06:22.699Z,1.10
2019-05-15T09:08:49.573Z,1.20
2019-05-15T09:11:19.223Z,1.20
2019-05-15T09:13:53.739Z,1.32
2019-05-15T09:16:19.365Z,1.20
2019-05-15T09:18:48.703Z,1.20
2019-05-15T09:21:19.174Z,1.30
2019-05-15T09:23:49.883Z,1.15
2019-05-15T09:26:19.651Z,1.07
2019-05-15T09:28:49.550Z,1.30
2019-05-15T09:31:19.422Z,1.10
2019-05-15T09:33:49.315Z,0.98
2019-05-15T09:36:20.204Z,1.00
2019-05-15T09:38:49.623Z,1.37
2019-05-15T09:41:18.720Z,0.93
2019-05-15T09:43:48.529Z,1.20
2019-05-15T09:46:18.478Z,1.25
2019-05-15T09:48:51.567Z,1.10
2019-05-15T09:51:18.677Z,1.10
2019-05-15T09:53:48.534Z,1.20
2019-05-15T09:56:18.683Z,0.90
2019-05-15T09:58:48.935Z,1.00
2019-05-15T10:01:19.750Z,1.15
2019-05-15T10:03:49.197Z,1.00
2019-05-15T10:06:20.549Z,0.90
2019-05-15T10:08:49.262Z,0.90
2019-05-15T10:11:19.662Z,0.82
2019-05-15T10:13:49.172Z,0.90
2019-05-15T10:16:19.887Z,1.05
2019-05-15T10:18:50.808Z,1.30
2019-05-15T10:21:20.083Z,1.27
2019-05-15T10:23:49.654Z,1.42
2019-05-15T10:26:19.421Z,1.50
2019-05-15T10:28:49.499Z,1.32
2019-05-15T10:31:19.453Z,1.17
2019-05-15T10:33:52.868Z,1.20
2019-05-15T10:36:21.944Z,1.00
2019-05-15T10:38:51.094Z,1.40
2019-05-15T10:41:20.511Z,0.98
2019-05-15T10:43:56.255Z,1.15
2019-05-15T10:46:20.548Z,0.93
2019-05-15T10:48:49.725Z,0.88
2019-05-15T10:51:19.703Z,1.02
2019-05-15T10:53:49.103Z,1.12
2019-05-15T10:56:18.705Z,0.82
2019-05-15T10:58:50.451Z,0.82
2019-05-15T11:01:19.325Z,1.30
2019-05-15T11:03:49.547Z,1.30
2019-05-15T11:06:18.956Z,1.00
2019-05-15T11:08:50.963Z,1.12
2019-05-15T11:11:18.944Z,1.20
2019-05-15T11:13:48.044Z,0.93
2019-05-15T11:16:18.575Z,1.02
2019-05-15T11:18:48.297Z,0.90
2019-05-15T11:21:19.079Z,1.15
2019-05-15T11:23:49.359Z,1.30
2019-05-15T11:26:19.509Z,1.00
2019-05-15T11:28:49.813Z,0.90
2019-05-15T11:31:19.774Z,0.95
2019-05-15T11:33:49.356Z,1.00
2019-05-15T11:36:18.717Z,0.90
2019-05-15T11:38:48.594Z,0.90
2019-05-15T11:41:19.161Z,0.90
2019-05-15T11:43:49.484Z,0.93
2019-05-15T11:46:18.869Z,0.80
2019-05-15T11:48:49.805Z,1.20
2019-05-15T11:51:18.801Z,0.78
2019-05-15T11:53:49.183Z,1.15
2019-05-15T11:56:19.058Z,0.80
2019-05-15T11:58:48.349Z,0.90
2019-05-15T12:01:19.046Z,1.02
2019-05-15T12:03:48.354Z,0.88
2019-05-15T12:06:21.932Z,1.02
2019-05-15T12:08:48.257Z,1.05
2019-05-15T12:11:31.910Z,0.93
2019-05-15T12:13:48.234Z,0.70
2019-05-15T12:16:17.335Z,0.80
2019-05-15T12:18:48.339Z,0.93
2019-05-15T12:21:19.916Z,0.70
2019-05-15T12:23:49.315Z,0.80
2019-05-15T12:26:18.417Z,1.00
2019-05-15T12:28:49.050Z,0.90
2019-05-15T12:31:23.804Z,0.93
2019-05-15T12:33:49.095Z,0.80
2019-05-15T12:38:50.193Z,1.00
2019-05-15T13:01:26.449Z,1.00
2019-05-15T13:03:57.839Z,0.65
2019-05-15T13:06:28.513Z,0.78
2019-05-15T13:08:59.493Z,0.75
2019-05-15T13:11:28.926Z,0.80
2019-05-15T13:13:59.129Z,0.85
2019-05-15T13:16:28.438Z,0.70
2019-05-15T13:18:58.875Z,1.00
2019-05-15T13:21:29.617Z,0.70
2019-05-15T13:23:59.031Z,0.90
2019-05-15T13:26:28.134Z,0.72
2019-05-15T13:28:58.281Z,0.82
2019-05-15T13:31:28.382Z,1.05
2019-05-15T13:33:58.839Z,1.10
2019-05-15T13:36:28.789Z,0.75
2019-05-15T13:38:58.351Z,0.75
2019-05-15T13:41:28.278Z,0.78
2019-05-15T13:43:58.413Z,0.90
2019-05-15T13:46:29.065Z,1.15
2019-05-15T13:48:59.510Z,0.90
2019-05-15T13:51:29.227Z,1.10
2019-05-15T13:53:58.457Z,1.00
2019-05-15T13:56:28.994Z,0.72
2019-05-15T13:58:58.749Z,0.82
2019-05-15T14:01:28.633Z,0.80
2019-05-15T14:03:58.823Z,0.53
2019-05-15T14:06:28.779Z,0.85
2019-05-15T14:08:58.259Z,1.05
2019-05-15T14:11:30.868Z,1.10
2019-05-15T14:13:59.475Z,1.17
2019-05-15T14:16:28.961Z,0.80
2019-05-15T14:18:58.705Z,1.15
2019-05-15T14:21:28.605Z,1.05
2019-05-15T14:24:01.308Z,1.17
2019-05-15T14:26:28.707Z,1.07
2019-05-15T14:28:58.711Z,1.17
2019-05-15T14:31:28.629Z,0.93
2019-05-15T14:33:58.074Z,1.20
2019-05-15T14:36:28.803Z,1.17
2019-05-15T14:38:58.728Z,0.98
2019-05-15T14:41:29.241Z,0.80
2019-05-15T14:44:11.977Z,1.10
2019-05-15T14:46:29.607Z,0.80
2019-05-15T14:48:58.715Z,1.00
2019-05-15T14:51:28.522Z,1.15
2019-05-15T14:53:58.390Z,1.25
2019-05-15T14:56:27.607Z,1.47
2019-05-15T14:58:58.613Z,1.40
2019-05-15T15:01:27.525Z,1.00
2019-05-15T15:03:58.144Z,1.00
2019-05-15T15:06:27.436Z,1.20
2019-05-15T15:08:59.091Z,1.40
2019-05-15T15:11:28.457Z,1.32
2019-05-15T15:13:57.965Z,1.57
2019-05-15T15:16:29.207Z,1.30
2019-05-15T15:18:58.494Z,1.45
2019-05-15T15:21:29.243Z,1.50
2019-05-15T15:23:58.861Z,1.27
2019-05-15T15:26:28.091Z,1.40
2019-05-15T15:28:59.024Z,1.55
2019-05-15T15:31:28.882Z,1.20
2019-05-15T15:33:58.398Z,1.30
2019-05-15T15:36:28.546Z,1.10
2019-05-15T15:38:58.833Z,1.40
2019-05-15T15:41:28.615Z,1.40
2019-05-15T15:43:58.670Z,1.40
2019-05-15T15:46:28.701Z,1.20
2019-05-15T15:48:59.275Z,1.30
2019-05-15T15:51:28.798Z,1.60
2019-05-15T15:53:57.890Z,1.20
2019-05-15T15:56:29.058Z,1.17
2019-05-15T15:58:59.432Z,1.32
2019-05-15T16:01:31.424Z,1.10
2019-05-15T16:03:59.559Z,1.25
2019-05-15T16:06:29.345Z,1.40
2019-05-15T16:08:59.613Z,1.20
2019-05-15T16:11:28.948Z,1.57
2019-05-15T16:13:58.724Z,1.42
2019-05-15T16:16:28.548Z,1.12
2019-05-15T16:18:58.190Z,1.27
2019-05-15T16:21:28.729Z,1.10
2019-05-15T16:23:58.333Z,1.32
2019-05-15T16:26:29.134Z,1.20
2019-05-15T16:29:01.641Z,1.10
2019-05-15T16:31:30.013Z,0.90
2019-05-15T16:34:00.618Z,1.30
2019-05-15T16:36:31.459Z,1.20
2019-05-15T16:39:07.743Z,1.00
2019-05-15T16:41:39.710Z,1.37
2019-05-15T16:44:10.719Z,1.17
2019-05-15T16:46:41.351Z,1.10
2019-05-15T16:49:11.318Z,1.00
2019-05-15T16:51:43.727Z,1.07
2019-05-15T16:54:13.569Z,1.20
2019-05-15T16:56:43.927Z,1.40
2019-05-15T16:59:13.567Z,1.40
2019-05-15T17:01:43.792Z,1.60
2019-05-15T17:04:13.379Z,1.40
2019-05-15T17:06:42.913Z,1.17
2019-05-15T17:09:21.318Z,1.07
2019-05-15T17:11:45.569Z,1.10
2019-05-15T17:14:15.136Z,1.10
2019-05-15T17:16:45.127Z,1.00
2019-05-15T17:19:14.593Z,1.12
2019-05-15T17:21:44.398Z,1.10
2019-05-15T17:24:14.157Z,1.12
2019-05-15T17:26:43.885Z,1.07
2019-05-15T17:29:13.070Z,1.02
2019-05-15T17:31:42.575Z,0.90
2019-05-15T17:34:11.695Z,1.15
2019-05-15T17:36:40.794Z,1.05
2019-05-15T17:39:09.901Z,1.10
2019-05-15T17:41:39.277Z,1.10
2019-05-15T17:44:08.481Z,0.85
2019-05-15T17:46:38.461Z,1.20
2019-05-15T17:49:14.958Z,1.17
2019-05-15T17:51:38.809Z,1.17
2019-05-15T17:54:08.871Z,1.12
2019-05-15T17:56:39.189Z,1.25
2019-05-15T17:59:08.818Z,1.45
2019-05-15T18:01:38.421Z,1.57
2019-05-15T18:04:08.413Z,1.10
2019-05-15T18:06:39.855Z,1.20
2019-05-15T18:09:08.877Z,1.10
2019-05-15T18:11:38.490Z,1.05
2019-05-15T18:14:08.997Z,1.20
2019-05-15T18:16:38.335Z,1.20
2019-05-15T18:19:08.282Z,1.20
2019-05-15T18:21:38.545Z,1.20
2019-05-15T18:24:09.418Z,1.52
2019-05-15T18:26:38.918Z,1.10
2019-05-15T18:29:09.151Z,1.00
2019-05-15T18:31:38.511Z,0.90
2019-05-15T18:34:08.314Z,1.20
2019-05-15T18:36:39.274Z,1.37
2019-05-15T18:39:08.815Z,1.15
2019-05-15T18:41:38.011Z,1.20
2019-05-15T18:44:07.243Z,1.30
2019-05-15T18:46:38.153Z,1.00
2019-05-15T18:49:07.388Z,1.10
2019-05-15T18:51:38.484Z,1.20
2019-05-15T18:54:08.133Z,1.12
2019-05-15T18:56:38.583Z,1.20
2019-05-15T18:59:08.508Z,1.15
2019-05-15T19:01:39.334Z,1.32
2019-05-15T19:04:09.021Z,1.40
2019-05-15T19:06:38.384Z,1.20
2019-05-15T19:09:08.296Z,1.40
2019-05-15T19:11:38.373Z,1.07
2019-05-15T19:14:08.342Z,1.40
2019-05-15T19:16:38.748Z,1.47
2019-05-15T19:19:08.660Z,1.25
2019-05-15T19:21:38.254Z,1.12
2019-05-15T19:24:07.792Z,1.10
2019-05-15T19:26:37.016Z,1.32
2019-05-15T19:29:08.284Z,1.05
2019-05-15T19:31:39.029Z,1.20
2019-05-15T19:34:08.601Z,1.47
2019-05-15T19:36:38.214Z,1.27
2019-05-15T19:39:08.148Z,1.25
2019-05-15T19:41:38.222Z,1.00
2019-05-15T19:44:08.790Z,1.40
2019-05-15T19:46:38.684Z,1.43
2019-05-15T19:49:08.734Z,1.37
2019-05-15T19:51:38.298Z,1.10
2019-05-15T19:54:09.185Z,1.10
2019-05-15T19:56:38.561Z,1.70
2019-05-15T19:59:08.795Z,1.25
2019-05-15T20:01:38.576Z,1.40
2019-05-15T20:04:08.099Z,1.47
2019-05-15T20:06:38.672Z,1.07
2019-05-15T20:09:08.072Z,1.47
2019-05-15T20:11:38.537Z,1.30
2019-05-15T20:14:07.853Z,1.30
2019-05-15T20:16:38.886Z,1.10
2019-05-15T20:19:08.713Z,1.10
2019-05-15T20:21:38.224Z,1.30
2019-05-15T20:24:08.476Z,1.40
2019-05-15T20:26:38.139Z,0.93
2019-05-15T20:29:09.116Z,1.30
2019-05-15T20:31:38.595Z,1.20
2019-05-15T20:34:09.260Z,1.30
2019-05-15T20:36:38.740Z,1.00
2019-05-15T20:39:08.431Z,1.43
2019-05-15T20:41:38.473Z,1.17
2019-05-15T20:44:08.910Z,1.30
2019-05-15T20:46:39.196Z,1.07
2019-05-15T20:49:08.694Z,1.27
2019-05-15T20:51:38.962Z,1.33
2019-05-15T20:54:08.489Z,1.20
2019-05-15T20:56:38.488Z,1.17
2019-05-15T20:59:08.874Z,1.10
2019-05-15T21:01:38.185Z,1.13
2019-05-15T21:04:19.294Z,1.10
2019-05-15T21:06:39.324Z,1.40
2019-05-15T21:09:08.914Z,1.57
2019-05-15T21:11:39.796Z,1.07
2019-05-15T21:14:08.955Z,1.07
2019-05-15T21:16:38.053Z,0.97
2019-05-15T21:19:08.514Z,1.00
2019-05-15T21:21:38.626Z,1.20
2019-05-15T21:24:10.241Z,0.97
2019-05-15T21:26:38.833Z,1.10
2019-05-15T21:29:07.983Z,1.00
2019-05-15T21:31:37.970Z,1.00
2019-05-15T21:34:08.536Z,1.17
2019-05-15T21:36:39.440Z,1.23
2019-05-15T21:39:08.752Z,1.13
2019-05-15T21:41:38.743Z,1.13
2019-05-15T21:44:08.715Z,1.10
2019-05-15T21:46:37.985Z,1.10
2019-05-15T21:49:08.780Z,1.40
2019-05-15T21:51:38.415Z,1.00
2019-05-15T21:54:09.912Z,1.20
2019-05-15T21:56:38.737Z,0.93
2019-05-15T21:59:08.366Z,1.10
2019-05-15T22:01:39.689Z,1.00
2019-05-15T22:04:08.930Z,0.97
2019-05-15T22:06:40.050Z,1.30
2019-05-15T22:09:45.256Z,1.00
2019-05-15T22:12:14.546Z,1.10
2019-05-15T22:14:43.925Z,1.17
2019-05-15T22:17:13.207Z,1.10
2019-05-15T22:19:42.291Z,1.10
2019-05-15T22:22:11.669Z,1.20
2019-05-15T22:24:40.744Z,1.33
2019-05-15T22:27:09.941Z,0.90
2019-05-15T22:29:39.138Z,0.97
2019-05-15T22:32:08.272Z,1.07
2019-05-15T22:34:37.416Z,1.30
2019-05-15T22:37:08.453Z,1.10
2019-05-15T22:39:38.523Z,0.90
2019-05-15T22:42:08.218Z,1.17
2019-05-15T22:44:38.618Z,1.13
2019-05-15T22:47:07.808Z,1.67
2019-05-15T22:49:38.049Z,1.10
2019-05-15T22:52:08.525Z,1.20
2019-05-15T22:54:38.710Z,1.10
2019-05-15T22:57:08.038Z,0.93
2019-05-15T22:59:38.225Z,0.90
2019-05-15T23:02:09.244Z,1.17
2019-05-15T23:04:38.312Z,1.20
2019-05-15T23:07:08.169Z,1.20
2019-05-15T23:09:38.375Z,1.10
2019-05-15T23:12:11.278Z,0.80
2019-05-15T23:14:38.691Z,1.20
2019-05-15T23:17:08.260Z,1.20
2019-05-15T23:19:38.595Z,1.10
2019-05-15T23:22:08.417Z,1.37
2019-05-15T23:24:38.739Z,1.23
2019-05-15T23:27:08.879Z,1.30
2019-05-15T23:29:38.605Z,1.67
2019-05-15T23:32:07.987Z,1.10
2019-05-15T23:34:38.671Z,1.20
2019-05-15T23:37:08.241Z,1.00
2019-05-15T23:39:38.086Z,1.10
2019-05-15T23:42:08.848Z,1.00
2019-05-15T23:44:38.225Z,1.17
2019-05-15T23:47:07.478Z,1.03
2019-05-15T23:49:38.222Z,1.00
2019-05-15T23:52:08.878Z,1.30
2019-05-15T23:54:38.636Z,0.80
2019-05-15T23:57:08.896Z,1.20
2019-05-15T23:59:38.462Z,1.10
